ADDS TAF Data INFO
IDs: Format: Raw Decoded Include METARs

Data at: 1934 UTC 17 Jul 2018

KISO 171738Z 1718/1818 21010G17KT P6SM VCTS SCT025CB BKN090
  FM180300 22008KT 6SM SHRA VCTS SCT025CB OVC070
  FM180600 23006KT P6SM BKN070
  FM181200 33005KT P6SM BKN060 AMD LTD TO CLD VIS AND WIND